sensor_id;sensor_type;location;lat;lon;timestamp;pressure;altitude;pressure_sealevel;temperature;humidity
22047;BME280;11187;49.412;20.956;2023-04-28T00:02:33;95478.63;;;2.06;94.69
22047;BME280;11187;49.412;20.956;2023-04-28T00:05:07;95476.88;;;2.03;94.55
22047;BME280;11187;49.412;20.956;2023-04-28T00:07:54;95481.06;;;2.01;94.53
22047;BME280;11187;49.412;20.956;2023-04-28T00:10:28;95490.97;;;1.92;94.08
22047;BME280;11187;49.412;20.956;2023-04-28T00:13:16;95482.38;;;1.84;94.55
22047;BME280;11187;49.412;20.956;2023-04-28T00:15:49;95491.56;;;1.80;94.78
22047;BME280;11187;49.412;20.956;2023-04-28T00:18:43;95488.94;;;1.76;94.96
22047;BME280;11187;49.412;20.956;2023-04-28T00:21:16;95489.63;;;1.69;94.74
22047;BME280;11187;49.412;20.956;2023-04-28T00:24:10;95485.34;;;1.64;95.09
22047;BME280;11187;49.412;20.956;2023-04-28T00:26:43;95489.44;;;1.59;94.99
22047;BME280;11187;49.412;20.956;2023-04-28T00:29:30;95494.41;;;1.56;95.13
22047;BME280;11187;49.412;20.956;2023-04-28T00:32:03;95495.97;;;1.51;95.33
22047;BME280;11187;49.412;20.956;2023-04-28T00:34:57;95494.19;;;1.47;95.54
22047;BME280;11187;49.412;20.956;2023-04-28T00:37:35;95501.66;;;1.42;95.50
22047;BME280;11187;49.412;20.956;2023-04-28T00:40:36;95502.38;;;1.37;95.77
22047;BME280;11187;49.412;20.956;2023-04-28T00:43:09;95498.88;;;1.30;95.60
22047;BME280;11187;49.412;20.956;2023-04-28T00:46:03;95497.94;;;1.27;95.64
22047;BME280;11187;49.412;20.956;2023-04-28T00:48:57;95497.91;;;1.25;96.01
22047;BME280;11187;49.412;20.956;2023-04-28T00:51:30;95501.19;;;1.21;95.75
22047;BME280;11187;49.412;20.956;2023-04-28T00:54:17;95498.50;;;1.15;95.83
22047;BME280;11187;49.412;20.956;2023-04-28T00:56:50;95504.28;;;1.11;95.87
22047;BME280;11187;49.412;20.956;2023-04-28T00:59:44;95504.16;;;1.06;96.24
22047;BME280;11187;49.412;20.956;2023-04-28T01:02:17;95500.75;;;1.04;96.32
22047;BME280;11187;49.412;20.956;2023-04-28T01:05:04;95503.28;;;1.04;96.28
22047;BME280;11187;49.412;20.956;2023-04-28T01:07:37;95499.13;;;1.06;96.48
22047;BME280;11187;49.412;20.956;2023-04-28T01:10:31;95496.59;;;1.04;96.66
22047;BME280;11187;49.412;20.956;2023-04-28T01:13:04;95497.38;;;1.03;96.45
22047;BME280;11187;49.412;20.956;2023-04-28T01:15:58;95498.97;;;1.00;96.17
22047;BME280;11187;49.412;20.956;2023-04-28T01:18:52;95499.63;;;0.91;96.35
22047;BME280;11187;49.412;20.956;2023-04-28T01:21:46;95497.66;;;0.81;96.62
22047;BME280;11187;49.412;20.956;2023-04-28T01:24:19;95502.59;;;0.76;96.60
22047;BME280;11187;49.412;20.956;2023-04-28T01:27:13;95494.91;;;0.72;97.07
22047;BME280;11187;49.412;20.956;2023-04-28T01:30:09;95490.72;;;0.71;96.87
22047;BME280;11187;49.412;20.956;2023-04-28T01:33:03;95493.13;;;0.68;96.87
22047;BME280;11187;49.412;20.956;2023-04-28T01:35:57;95492.16;;;0.62;97.07
22047;BME280;11187;49.412;20.956;2023-04-28T01:38:51;95485.44;;;0.61;97.55
22047;BME280;11187;49.412;20.956;2023-04-28T01:41:24;95487.06;;;0.61;97.33
22047;BME280;11187;49.412;20.956;2023-04-28T01:44:15;95486.34;;;0.65;97.46
22047;BME280;11187;49.412;20.956;2023-04-28T01:46:48;95486.34;;;0.65;97.42
22047;BME280;11187;49.412;20.956;2023-04-28T01:49:35;95484.72;;;0.67;97.46
22047;BME280;11187;49.412;20.956;2023-04-28T01:52:08;95477.81;;;0.60;97.43
22047;BME280;11187;49.412;20.956;2023-04-28T01:54:55;95486.94;;;0.55;97.58
22047;BME280;11187;49.412;20.956;2023-04-28T01:57:29;95486.84;;;0.52;97.67
22047;BME280;11187;49.412;20.956;2023-04-28T02:00:15;95490.91;;;0.47;97.56
22047;BME280;11187;49.412;20.956;2023-04-28T02:02:48;95484.06;;;0.41;97.54
22047;BME280;11187;49.412;20.956;2023-04-28T02:05:35;95486.53;;;0.39;97.99
22047;BME280;11187;49.412;20.956;2023-04-28T02:08:09;95490.66;;;0.37;97.78
22047;BME280;11187;49.412;20.956;2023-04-28T02:11:03;95494.88;;;0.37;98.08
22047;BME280;11187;49.412;20.956;2023-04-28T02:13:57;95495.63;;;0.34;98.06
22047;BME280;11187;49.412;20.956;2023-04-28T02:16:31;95499.72;;;0.31;97.69
22047;BME280;11187;49.412;20.956;2023-04-28T02:19:18;95502.16;;;0.28;97.87
22047;BME280;11187;49.412;20.956;2023-04-28T02:21:51;95502.06;;;0.25;97.81
22047;BME280;11187;49.412;20.956;2023-04-28T02:24:38;95508.78;;;0.24;98.30
22047;BME280;11187;49.412;20.956;2023-04-28T02:27:11;95502.81;;;0.20;98.35
22047;BME280;11187;49.412;20.956;2023-04-28T02:30:00;95506.09;;;0.18;98.46
22047;BME280;11187;49.412;20.956;2023-04-28T02:32:35;95508.56;;;0.16;98.46
22047;BME280;11187;49.412;20.956;2023-04-28T02:35:22;95504.34;;;0.15;98.93
22047;BME280;11187;49.412;20.956;2023-04-28T02:37:58;95508.56;;;0.16;98.54
22047;BME280;11187;49.412;20.956;2023-04-28T02:40:45;95510.22;;;0.16;98.45
22047;BME280;11187;49.412;20.956;2023-04-28T02:43:18;95508.53;;;0.15;98.44
22047;BME280;11187;49.412;20.956;2023-04-28T02:46:05;95502.66;;;0.14;98.49
22047;BME280;11187;49.412;20.956;2023-04-28T02:48:38;95496.00;;;0.16;98.80
22047;BME280;11187;49.412;20.956;2023-04-28T02:51:25;95501.91;;;0.18;98.64
22047;BME280;11187;49.412;20.956;2023-04-28T02:53:58;95506.06;;;0.16;98.24
22047;BME280;11187;49.412;20.956;2023-04-28T02:56:45;95514.25;;;0.09;98.52
22047;BME280;11187;49.412;20.956;2023-04-28T02:59:19;95517.44;;;0.04;98.72
22047;BME280;11187;49.412;20.956;2023-04-28T03:02:13;95519.06;;;0.02;98.74
22047;BME280;11187;49.412;20.956;2023-04-28T03:04:47;95520.59;;;-0.04;98.77
22047;BME280;11187;49.412;20.956;2023-04-28T03:07:34;95523.97;;;-0.03;98.68
22047;BME280;11187;49.412;20.956;2023-04-28T03:10:07;95523.03;;;-0.07;98.83
22047;BME280;11187;49.412;20.956;2023-04-28T03:13:03;95518.72;;;-0.11;98.75
22047;BME280;11187;49.412;20.956;2023-04-28T03:15:36;95525.41;;;-0.11;98.82
22047;BME280;11187;49.412;20.956;2023-04-28T03:18:30;95537.91;;;-0.14;98.93
22047;BME280;11187;49.412;20.956;2023-04-28T03:21:24;95535.44;;;-0.13;98.88
22047;BME280;11187;49.412;20.956;2023-04-28T03:24:18;95534.47;;;-0.16;98.78
22047;BME280;11187;49.412;20.956;2023-04-28T03:27:12;95539.47;;;-0.18;99.17
22047;BME280;11187;49.412;20.956;2023-04-28T03:29:45;95544.66;;;-0.13;99.13
22047;BME280;11187;49.412;20.956;2023-04-28T03:32:32;95538.78;;;-0.12;99.10
22047;BME280;11187;49.412;20.956;2023-04-28T03:35:05;95542.16;;;-0.12;99.21
22047;BME280;11187;49.412;20.956;2023-04-28T03:37:52;95539.69;;;-0.10;99.02
22047;BME280;11187;49.412;20.956;2023-04-28T03:40:25;95537.22;;;-0.09;99.04
22047;BME280;11187;49.412;20.956;2023-04-28T03:43:19;95542.22;;;-0.10;99.09
22047;BME280;11187;49.412;20.956;2023-04-28T03:45:59;95538.78;;;-0.12;99.04
22047;BME280;11187;49.412;20.956;2023-04-28T03:48:53;95541.25;;;-0.14;99.21
22047;BME280;11187;49.412;20.956;2023-04-28T03:51:50;95541.25;;;-0.14;99.35
22047;BME280;11187;49.412;20.956;2023-04-28T03:54:23;95538.72;;;-0.15;99.32
22047;BME280;11187;49.412;20.956;2023-04-28T03:57:10;95533.63;;;-0.17;99.27
22047;BME280;11187;49.412;20.956;2023-04-28T03:59:43;95541.22;;;-0.15;99.46
22047;BME280;11187;49.412;20.956;2023-04-28T04:02:30;95544.53;;;-0.16;99.61
22047;BME280;11187;49.412;20.956;2023-04-28T04:05:04;95542.06;;;-0.15;99.70
22047;BME280;11187;49.412;20.956;2023-04-28T04:07:58;95542.28;;;-0.09;99.80
22047;BME280;11187;49.412;20.956;2023-04-28T04:10:31;95541.50;;;-0.06;99.61
22047;BME280;11187;49.412;20.956;2023-04-28T04:13:18;95539.00;;;-0.05;99.73
22047;BME280;11187;49.412;20.956;2023-04-28T04:15:51;95543.31;;;-0.02;99.52
22047;BME280;11187;49.412;20.956;2023-04-28T04:18:38;95546.59;;;-0.03;99.96
22047;BME280;11187;49.412;20.956;2023-04-28T04:21:11;95550.81;;;-0.04;99.61
22047;BME280;11187;49.412;20.956;2023-04-28T04:23:58;95544.03;;;-0.06;99.97
22047;BME280;11187;49.412;20.956;2023-04-28T04:26:31;95544.03;;;-0.06;100.00
22047;BME280;11187;49.412;20.956;2023-04-28T04:29:18;95543.25;;;-0.04;100.00
22047;BME280;11187;49.412;20.956;2023-04-28T04:31:51;95544.16;;;-0.02;100.00
22047;BME280;11187;49.412;20.956;2023-04-28T04:34:45;95546.81;;;0.03;100.00
22047;BME280;11187;49.412;20.956;2023-04-28T04:37:39;95547.78;;;0.08;100.00
22047;BME280;11187;49.412;20.956;2023-04-28T04:40:33;95552.94;;;0.13;100.00
22047;BME280;11187;49.412;20.956;2023-04-28T04:43:27;95549.88;;;0.23;100.00
22047;BME280;11187;49.412;20.956;2023-04-28T04:46:21;95545.38;;;0.43;100.00
22047;BME280;11187;49.412;20.956;2023-04-28T04:49:15;95543.56;;;0.69;100.00
22047;BME280;11187;49.412;20.956;2023-04-28T04:51:51;95541.56;;;0.89;100.00
22047;BME280;11187;49.412;20.956;2023-04-28T04:54:38;95540.63;;;1.19;100.00
22047;BME280;11187;49.412;20.956;2023-04-28T04:57:11;95540.44;;;1.46;100.00
22047;BME280;11187;49.412;20.956;2023-04-28T04:59:58;95540.22;;;1.73;99.81
22047;BME280;11187;49.412;20.956;2023-04-28T05:02:32;95531.50;;;1.98;99.63
22047;BME280;11187;49.412;20.956;2023-04-28T05:05:19;95532.88;;;2.23;99.07
22047;BME280;11187;49.412;20.956;2023-04-28T05:07:52;95528.22;;;2.45;98.77
22047;BME280;11187;49.412;20.956;2023-04-28T05:10:39;95528.69;;;2.69;98.41
22047;BME280;11187;49.412;20.956;2023-04-28T05:13:15;95529.09;;;2.91;98.09
22047;BME280;11187;49.412;20.956;2023-04-28T05:16:02;95527.81;;;3.14;97.79
22047;BME280;11187;49.412;20.956;2023-04-28T05:18:35;95528.97;;;3.35;96.93
22047;BME280;11187;49.412;20.956;2023-04-28T05:21:22;95530.97;;;3.53;96.23
22047;BME280;11187;49.412;20.956;2023-04-28T05:23:55;95533.78;;;3.73;95.93
22047;BME280;11187;49.412;20.956;2023-04-28T05:26:50;95527.38;;;3.98;95.52
22047;BME280;11187;49.412;20.956;2023-04-28T05:29:23;95525.94;;;4.17;94.89
22047;BME280;11187;49.412;20.956;2023-04-28T05:32:17;95523.69;;;4.38;94.04
22047;BME280;11187;49.412;20.956;2023-04-28T05:35:11;95521.34;;;4.55;93.17
22047;BME280;11187;49.412;20.956;2023-04-28T05:37:44;95515.59;;;4.70;93.02
22047;BME280;11187;49.412;20.956;2023-04-28T05:40:31;95522.59;;;4.94;91.92
22047;BME280;11187;49.412;20.956;2023-04-28T05:43:04;95518.56;;;5.13;91.28
22047;BME280;11187;49.412;20.956;2023-04-28T05:45:59;95522.94;;;5.30;90.47
22047;BME280;11187;49.412;20.956;2023-04-28T05:49:08;95523.09;;;5.53;89.69
22047;BME280;11187;49.412;20.956;2023-04-28T05:52:02;95527.50;;;5.75;89.18
22047;BME280;11187;49.412;20.956;2023-04-28T05:54:35;95528.47;;;5.93;88.43
22047;BME280;11187;49.412;20.956;2023-04-28T05:57:22;95527.72;;;6.06;87.61
22047;BME280;11187;49.412;20.956;2023-04-28T06:00:02;95532.91;;;6.26;87.08
22047;BME280;11187;49.412;20.956;2023-04-28T06:02:48;95531.31;;;6.45;85.81
22047;BME280;11187;49.412;20.956;2023-04-28T06:05:22;95527.16;;;6.61;85.29
22047;BME280;11187;49.412;20.956;2023-04-28T06:08:08;95527.16;;;6.72;83.48
22047;BME280;11187;49.412;20.956;2023-04-28T06:10:41;95529.75;;;6.82;84.49
22047;BME280;11187;49.412;20.956;2023-04-28T06:13:28;95523.88;;;7.09;84.15
22047;BME280;11187;49.412;20.956;2023-04-28T06:16:02;95523.03;;;7.40;83.62
22047;BME280;11187;49.412;20.956;2023-04-28T06:18:49;95522.19;;;7.62;81.75
22047;BME280;11187;49.412;20.956;2023-04-28T06:21:22;95516.22;;;7.83;81.09
22047;BME280;11187;49.412;20.956;2023-04-28T06:24:17;95512.78;;;8.01;79.81
22047;BME280;11187;49.412;20.956;2023-04-28T06:26:50;95516.16;;;8.19;79.75
22047;BME280;11187;49.412;20.956;2023-04-28T06:29:44;95515.25;;;8.36;79.21
22047;BME280;11187;49.412;20.956;2023-04-28T06:32:38;95513.53;;;8.59;79.14
22047;BME280;11187;49.412;20.956;2023-04-28T06:35:12;95513.31;;;8.92;77.97
22047;BME280;11187;49.412;20.956;2023-04-28T06:38:06;95521.69;;;9.20;77.42
22047;BME280;11187;49.412;20.956;2023-04-28T06:41:00;95516.38;;;9.50;76.49
22047;BME280;11187;49.412;20.956;2023-04-28T06:43:33;95513.63;;;9.71;74.42
22047;BME280;11187;49.412;20.956;2023-04-28T06:46:20;95519.31;;;10.01;75.09
22047;BME280;11187;49.412;20.956;2023-04-28T06:49:14;95511.38;;;10.30;74.00
22047;BME280;11187;49.412;20.956;2023-04-28T06:52:08;95507.66;;;10.59;72.84
22047;BME280;11187;49.412;20.956;2023-04-28T06:54:41;95507.34;;;10.82;70.24
22047;BME280;11187;49.412;20.956;2023-04-28T06:57:35;95503.56;;;11.11;68.49
22047;BME280;11187;49.412;20.956;2023-04-28T07:00:29;95500.72;;;11.29;66.98
22047;BME280;11187;49.412;20.956;2023-04-28T07:03:08;95507.09;;;11.58;66.85
22047;BME280;11187;49.412;20.956;2023-04-28T07:05:54;95501.59;;;11.81;65.51
22047;BME280;11187;49.412;20.956;2023-04-28T07:08:27;95497.94;;;11.96;64.81
22047;BME280;11187;49.412;20.956;2023-04-28T07:11:21;95493.25;;;12.19;64.79
22047;BME280;11187;49.412;20.956;2023-04-28T07:13:56;95498.94;;;12.35;64.70
22047;BME280;11187;49.412;20.956;2023-04-28T07:16:42;95497.72;;;12.53;63.02
22047;BME280;11187;49.412;20.956;2023-04-28T07:19:16;95500.78;;;12.72;62.83
22047;BME280;11187;49.412;20.956;2023-04-28T07:22:02;95498.06;;;12.80;59.66
22047;BME280;11187;49.412;20.956;2023-04-28T07:24:35;95495.88;;;12.60;58.51
22047;BME280;11187;49.412;20.956;2023-04-28T07:27:29;95497.72;;;12.54;57.40
22047;BME280;11187;49.412;20.956;2023-04-28T07:30:23;95492.47;;;12.61;55.90
22047;BME280;11187;49.412;20.956;2023-04-28T07:32:57;95495.66;;;12.72;56.77
22047;BME280;11187;49.412;20.956;2023-04-28T07:35:50;95494.44;;;12.90;56.19
22047;BME280;11187;49.412;20.956;2023-04-28T07:38:25;95495.69;;;13.11;56.06
22047;BME280;11187;49.412;20.956;2023-04-28T07:41:11;95496.94;;;13.32;51.17
22047;BME280;11187;49.412;20.956;2023-04-28T07:43:44;95494.25;;;13.36;52.51
22047;BME280;11187;49.412;20.956;2023-04-28T07:46:38;95491.88;;;13.27;52.29
22047;BME280;11187;49.412;20.956;2023-04-28T07:49:32;95486.13;;;13.53;53.88
22047;BME280;11187;49.412;20.956;2023-04-28T07:52:26;95489.03;;;13.75;52.19
22047;BME280;11187;49.412;20.956;2023-04-28T07:55:20;95489.03;;;14.10;51.62
22047;BME280;11187;49.412;20.956;2023-04-28T07:57:54;95471.56;;;14.21;53.15
22047;BME280;11187;49.412;20.956;2023-04-28T08:00:41;95474.25;;;14.49;52.37
22047;BME280;11187;49.412;20.956;2023-04-28T08:03:14;95474.41;;;14.74;51.52
22047;BME280;11187;49.412;20.956;2023-04-28T08:06:01;95463.78;;;14.85;50.29
22047;BME280;11187;49.412;20.956;2023-04-28T08:08:35;95463.91;;;15.10;51.23
22047;BME280;11187;49.412;20.956;2023-04-28T08:11:28;95461.97;;;15.17;48.53
22047;BME280;11187;49.412;20.956;2023-04-28T08:14:02;95458.47;;;14.61;49.65
22047;BME280;11187;49.412;20.956;2023-04-28T08:16:55;95456.84;;;14.26;50.75
22047;BME280;11187;49.412;20.956;2023-04-28T08:19:28;95448.06;;;14.33;50.71
22047;BME280;11187;49.412;20.956;2023-04-28T08:22:15;95456.25;;;14.48;50.28
22047;BME280;11187;49.412;20.956;2023-04-28T08:24:48;95449.75;;;14.66;48.72
22047;BME280;11187;49.412;20.956;2023-04-28T08:27:35;95439.69;;;14.25;49.77
22047;BME280;11187;49.412;20.956;2023-04-28T08:30:12;95448.75;;;14.40;50.00
22047;BME280;11187;49.412;20.956;2023-04-28T08:32:58;95434.28;;;14.66;49.16
22047;BME280;11187;49.412;20.956;2023-04-28T08:35:33;95449.56;;;15.01;48.84
22047;BME280;11187;49.412;20.956;2023-04-28T08:38:19;95435.94;;;15.24;48.79
22047;BME280;11187;49.412;20.956;2023-04-28T08:40:54;95442.69;;;15.55;49.89
22047;BME280;11187;49.412;20.956;2023-04-28T08:43:41;95444.09;;;15.92;47.24
22047;BME280;11187;49.412;20.956;2023-04-28T08:46:15;95431.03;;;15.97;46.46
22047;BME280;11187;49.412;20.956;2023-04-28T08:49:05;95426.38;;;16.06;44.87
22047;BME280;11187;49.412;20.956;2023-04-28T08:51:45;95429.25;;;15.99;44.82
22047;BME280;11187;49.412;20.956;2023-04-28T08:54:35;95425.69;;;15.50;43.83
22047;BME280;11187;49.412;20.956;2023-04-28T08:57:09;95428.44;;;15.70;45.15
22047;BME280;11187;49.412;20.956;2023-04-28T08:59:57;95418.78;;;16.02;43.25
22047;BME280;11187;49.412;20.956;2023-04-28T09:02:31;95423.44;;;16.17;43.80
22047;BME280;11187;49.412;20.956;2023-04-28T09:05:21;95416.13;;;16.52;42.31
22047;BME280;11187;49.412;20.956;2023-04-28T09:07:55;95421.56;;;16.68;41.47
22047;BME280;11187;49.412;20.956;2023-04-28T09:10:41;95422.94;;;16.78;42.45
22047;BME280;11187;49.412;20.956;2023-04-28T09:13:24;95418.19;;;16.89;41.87
22047;BME280;11187;49.412;20.956;2023-04-28T09:16:12;95412.25;;;17.09;41.92
22047;BME280;11187;49.412;20.956;2023-04-28T09:18:55;95402.28;;;17.44;41.75
22047;BME280;11187;49.412;20.956;2023-04-28T09:21:53;95414.28;;;17.45;38.30
22047;BME280;11187;49.412;20.956;2023-04-28T09:24:39;95412.34;;;17.50;39.64
22047;BME280;11187;49.412;20.956;2023-04-28T09:27:28;95411.50;;;17.50;37.56
22047;BME280;11187;49.412;20.956;2023-04-28T09:30:00;95406.34;;;17.70;39.65
22047;BME280;11187;49.412;20.956;2023-04-28T09:33:04;95399.41;;;17.93;38.54
22047;BME280;11187;49.412;20.956;2023-04-28T09:35:58;95392.41;;;17.95;38.58
22047;BME280;11187;49.412;20.956;2023-04-28T09:38:42;95399.19;;;18.18;35.80
22047;BME280;11187;49.412;20.956;2023-04-28T09:41:43;95399.78;;;18.44;37.07
22047;BME280;11187;49.412;20.956;2023-04-28T09:44:37;95391.03;;;18.65;36.62
22047;BME280;11187;49.412;20.956;2023-04-28T09:47:20;95384.81;;;18.88;36.98
22047;BME280;11187;49.412;20.956;2023-04-28T09:50:15;95395.53;;;18.99;35.27
22047;BME280;11187;49.412;20.956;2023-04-28T09:53:13;95387.41;;;18.88;34.56
22047;BME280;11187;49.412;20.956;2023-04-28T09:56:08;95377.81;;;18.90;35.23
22047;BME280;11187;49.412;20.956;2023-04-28T09:59:05;95378.91;;;19.21;35.60
22047;BME280;11187;49.412;20.956;2023-04-28T10:01:40;95373.09;;;19.52;34.95
22047;BME280;11187;49.412;20.956;2023-04-28T10:04:26;95371.09;;;19.57;34.15
22047;BME280;11187;49.412;20.956;2023-04-28T10:07:03;95369.72;;;18.58;34.15
22047;BME280;11187;49.412;20.956;2023-04-28T10:09:50;95358.50;;;18.39;35.05
22047;BME280;11187;49.412;20.956;2023-04-28T10:12:24;95355.00;;;18.40;35.32
22047;BME280;11187;49.412;20.956;2023-04-28T10:15:17;95351.19;;;18.09;36.42
22047;BME280;11187;49.412;20.956;2023-04-28T10:17:52;95353.94;;;18.25;35.92
22047;BME280;11187;49.412;20.956;2023-04-28T10:20:44;95353.03;;;18.26;35.21
22047;BME280;11187;49.412;20.956;2023-04-28T10:29:26;95335.00;;;18.99;34.39
22047;BME280;11187;49.412;20.956;2023-04-28T10:32:21;95334.78;;;19.21;34.87
22047;BME280;11187;49.412;20.956;2023-04-28T10:40:49;95304.06;;;19.31;34.00
22047;BME280;11187;49.412;20.956;2023-04-28T10:43:48;95319.38;;;19.18;33.25
22047;BME280;11187;49.412;20.956;2023-04-28T10:46:59;95321.66;;;19.41;33.06
22047;BME280;11187;49.412;20.956;2023-04-28T10:52:49;95305.78;;;19.65;32.86
22047;BME280;11187;49.412;20.956;2023-04-28T10:55:26;95303.78;;;19.53;32.50
22047;BME280;11187;49.412;20.956;2023-04-28T11:00:52;95290.50;;;19.41;32.63
22047;BME280;11187;49.412;20.956;2023-04-28T11:03:54;95288.84;;;19.23;32.24
22047;BME280;11187;49.412;20.956;2023-04-28T11:12:04;95277.03;;;18.45;34.20
22047;BME280;11187;49.412;20.956;2023-04-28T11:14:52;95276.00;;;18.85;33.64
22047;BME280;11187;49.412;20.956;2023-04-28T11:17:39;95261.94;;;18.89;33.45
22047;BME280;11187;49.412;20.956;2023-04-28T11:20:34;95259.75;;;19.16;32.54
22047;BME280;11187;49.412;20.956;2023-04-28T11:23:28;95262.13;;;19.21;33.17
22047;BME280;11187;49.412;20.956;2023-04-28T11:26:02;95262.00;;;19.24;32.75
22047;BME280;11187;49.412;20.956;2023-04-28T11:28:53;95258.38;;;19.09;33.11
22047;BME280;11187;49.412;20.956;2023-04-28T11:31:28;95259.88;;;19.48;33.58
22047;BME280;11187;49.412;20.956;2023-04-28T11:34:18;95262.66;;;19.45;31.01
22047;BME280;11187;49.412;20.956;2023-04-28T11:36:53;95248.91;;;18.91;32.37
22047;BME280;11187;49.412;20.956;2023-04-28T11:39:39;95251.44;;;19.10;33.48
22047;BME280;11187;49.412;20.956;2023-04-28T11:42:12;95252.75;;;19.18;32.94
22047;BME280;11187;49.412;20.956;2023-04-28T11:45:11;95249.69;;;19.28;33.03
22047;BME280;11187;49.412;20.956;2023-04-28T11:48:20;95251.06;;;19.17;32.47
22047;BME280;11187;49.412;20.956;2023-04-28T11:51:34;95244.78;;;18.87;32.53
22047;BME280;11187;49.412;20.956;2023-04-28T11:54:30;95240.34;;;18.71;32.41
22047;BME280;11187;49.412;20.956;2023-04-28T11:57:04;95242.44;;;18.63;32.85
22047;BME280;11187;49.412;20.956;2023-04-28T11:59:51;95236.81;;;18.36;33.30
22047;BME280;11187;49.412;20.956;2023-04-28T12:02:26;95237.59;;;18.00;33.46
22047;BME280;11187;49.412;20.956;2023-04-28T12:05:17;95241.28;;;17.36;34.09
22047;BME280;11187;49.412;20.956;2023-04-28T12:07:54;95243.09;;;17.14;34.56
22047;BME280;11187;49.412;20.956;2023-04-28T12:11:09;95226.38;;;16.80;36.32
22047;BME280;11187;49.412;20.956;2023-04-28T12:14:02;95218.28;;;16.67;34.86
22047;BME280;11187;49.412;20.956;2023-04-28T12:16:56;95222.06;;;16.36;36.35
22047;BME280;11187;49.412;20.956;2023-04-28T12:19:53;95213.69;;;15.85;35.72
22047;BME280;11187;49.412;20.956;2023-04-28T12:22:27;95221.38;;;15.62;37.19
22047;BME280;11187;49.412;20.956;2023-04-28T12:25:16;95214.94;;;15.50;37.36
22047;BME280;11187;49.412;20.956;2023-04-28T12:28:06;95215.16;;;15.44;37.75
22047;BME280;11187;49.412;20.956;2023-04-28T12:31:03;95212.91;;;15.35;38.09
22047;BME280;11187;49.412;20.956;2023-04-28T12:33:37;95202.06;;;15.25;38.34
22047;BME280;11187;49.412;20.956;2023-04-28T12:36:23;95202.19;;;15.22;38.41
22047;BME280;11187;49.412;20.956;2023-04-28T12:38:57;95195.66;;;15.12;39.62
22047;BME280;11187;49.412;20.956;2023-04-28T12:41:50;95184.47;;;14.88;38.36
22047;BME280;11187;49.412;20.956;2023-04-28T12:44:45;95184.00;;;14.76;39.34
22047;BME280;11187;49.412;20.956;2023-04-28T12:47:39;95179.31;;;14.63;39.43
22047;BME280;11187;49.412;20.956;2023-04-28T12:50:33;95173.69;;;14.48;39.56
22047;BME280;11187;49.412;20.956;2023-04-28T12:53:27;95171.25;;;14.45;40.15
22047;BME280;11187;49.412;20.956;2023-04-28T12:56:21;95166.03;;;14.47;40.18
22047;BME280;11187;49.412;20.956;2023-04-28T12:58:56;95165.44;;;14.38;39.85
22047;BME280;11187;49.412;20.956;2023-04-28T13:01:50;95161.09;;;14.40;40.21
22047;BME280;11187;49.412;20.956;2023-04-28T13:04:44;95156.97;;;14.35;41.15
22047;BME280;11187;49.412;20.956;2023-04-28T13:07:21;95150.78;;;14.40;41.41
22047;BME280;11187;49.412;20.956;2023-04-28T13:10:14;95156.97;;;14.35;41.69
22047;BME280;11187;49.412;20.956;2023-04-28T13:13:09;95148.66;;;14.27;40.71
22047;BME280;11187;49.412;20.956;2023-04-28T13:16:03;95143.69;;;14.20;40.83
22047;BME280;11187;49.412;20.956;2023-04-28T13:18:38;95147.88;;;14.25;41.21
22047;BME280;11187;49.412;20.956;2023-04-28T13:21:24;95146.13;;;14.25;41.20
22047;BME280;11187;49.412;20.956;2023-04-28T13:23:59;95141.97;;;14.21;41.30
22047;BME280;11187;49.412;20.956;2023-04-28T13:26:55;95134.31;;;14.19;41.25
22047;BME280;11187;49.412;20.956;2023-04-28T13:29:28;95140.25;;;14.22;41.17
22047;BME280;11187;49.412;20.956;2023-04-28T13:32:22;95126.44;;;14.24;41.00
22047;BME280;11187;49.412;20.956;2023-04-28T13:34:56;95130.97;;;14.16;40.83
22047;BME280;11187;49.412;20.956;2023-04-28T13:37:50;95124.31;;;14.10;42.35
22047;BME280;11187;49.412;20.956;2023-04-28T13:40:28;95131.13;;;14.11;41.32
22047;BME280;11187;49.412;20.956;2023-04-28T13:43:21;95133.50;;;14.17;41.54
22047;BME280;11187;49.412;20.956;2023-04-28T13:45:55;95121.34;;;14.21;41.87
22047;BME280;11187;49.412;20.956;2023-04-28T13:48:53;95132.16;;;14.32;42.58
22047;BME280;11187;49.412;20.956;2023-04-28T13:51:47;95136.34;;;14.35;41.80
22047;BME280;11187;49.412;20.956;2023-04-28T13:54:21;95132.91;;;14.36;41.97
22047;BME280;11187;49.412;20.956;2023-04-28T13:57:07;95126.16;;;14.32;41.67
22047;BME280;11187;49.412;20.956;2023-04-28T13:59:41;95118.69;;;14.24;41.64
22047;BME280;11187;49.412;20.956;2023-04-28T14:02:27;95113.59;;;14.23;41.83
22047;BME280;11187;49.412;20.956;2023-04-28T14:05:02;95110.81;;;14.29;42.49
22047;BME280;11187;49.412;20.956;2023-04-28T14:07:55;95104.31;;;14.44;42.46
22047;BME280;11187;49.412;20.956;2023-04-28T14:10:29;95099.75;;;14.52;42.12
22047;BME280;11187;49.412;20.956;2023-04-28T14:13:16;95099.78;;;14.50;41.86
22047;BME280;11187;49.412;20.956;2023-04-28T14:15:51;95095.47;;;14.51;41.85
22047;BME280;11187;49.412;20.956;2023-04-28T14:18:38;95092.06;;;14.50;41.72
22047;BME280;11187;49.412;20.956;2023-04-28T14:21:12;95089.59;;;14.47;42.34
22047;BME280;11187;49.412;20.956;2023-04-28T14:23:58;95088.13;;;14.40;42.49
22047;BME280;11187;49.412;20.956;2023-04-28T14:26:32;95080.59;;;14.34;42.36
22047;BME280;11187;49.412;20.956;2023-04-28T14:29:18;95079.97;;;14.27;41.95
22047;BME280;11187;49.412;20.956;2023-04-28T14:31:52;95079.22;;;14.24;41.84
22047;BME280;11187;49.412;20.956;2023-04-28T14:34:48;95074.28;;;14.17;42.67
22047;BME280;11187;49.412;20.956;2023-04-28T14:37:42;95075.22;;;14.15;41.74
22047;BME280;11187;49.412;20.956;2023-04-28T14:40:36;95069.34;;;14.11;42.13
22047;BME280;11187;49.412;20.956;2023-04-28T14:43:30;95072.81;;;14.10;43.13
22047;BME280;11187;49.412;20.956;2023-04-28T14:46:04;95072.81;;;14.10;42.63
22047;BME280;11187;49.412;20.956;2023-04-28T14:48:50;95067.91;;;14.03;42.43